TFM - Tactical Decision Aid (Experimental) INFO Settings
ID: Runway Winds: CIG/VIS Threshold: METAR Board: Map:

KOGB - Orangeburg Muni

Updated at: 1358 UTC 17 Dec 2017
Latest TAF at: 1131 UTC 17 Dec 2017

TAF Board

Time1353Z17/14Z17/15Z17/16Z17/17Z17/18Z17/19Z17/20Z17/21Z17/22Z17/23Z18/00Z18/01Z18/02Z
TypeOBSPRVLPRVLPRVLPRVLPRVLPRVLPRVLPRVLPRVLPRVLPRVLPRVLPRVL
VIS8>6>6>6>6>6>6>6>6>6>6>6>6>6
CIG--------------100100100100404040
CoverCLRSCTSCTSCTSCTSCTSCTBKNBKNBKNBKNOVCOVCOVC
FltCatVFRVFRVFRVFRVFRVFRVFRVFRVFRVFRVFRVFRVFRVFR
WX----------------------------
WDirVRBVRBVRBVRBVRBVRBVRB210210210210VRBVRBVRB
WSpd03333335555333
WGst----------------------------
TAF
KOGB 171131Z 1712/1812 VRB03KT P6SM SCT200
  TEMPO 1712/1713 2SM BR
  FM172000 21005KT P6SM SCT050 BKN100
  FM180000 VRB03KT P6SM OVC040


METAR
KOGB 171353Z AUTO 00000KT 8SM CLR 02/00 A3033 RMK AO2 SLP270 I1000 T00170000
KOGB 171253Z AUTO 00000KT 7SM CLR M01/M02 A3031 RMK AO2 SLP264 T10061017

TAF/METAR Board Legend

Potential Impact
  None Marginal Slight Moderate High
Visibility (sm) >5 3≤X≤5 2≤X<3 1≤X<2 <1
Ceiling (100 ft) >30 10≤X≤30 8≤X<10 3≤X<8 <3
Wind Speed (kt) <10 10≤X<20 20≤X<30 ≥30
Wind Gust (kt) <15 15≤X<25 25≤X<35 ≥35
Weather No Wx Reported VCTS -TS,-FZRA TS,FZRA +TS,+FZRA